Time;durP1;ratioP1;P1;durP2;ratioP2;P2;SDS_P1;SDS_P2;PMS_P1;PMS_P2;Temp;Humidity;BMP_temperature;BMP_pressure;BME280_temperature;BME280_humidity;BME280_pressure;Samples;Min_cycle;Max_cycle;Signal;HPM_P1;HPM_P2
2023/11/21 00:00:11;;;;;;;;;;;8.20;99.90;;;7.60;100.00;97102.66;5003950;28;1541;-71
2023/11/21 00:02:40;;;;;;;;;;;8.20;99.90;;;7.50;100.00;97089.25;4988818;28;1509;-74
2023/11/21 00:05:09;;;;;;;;;;;8.20;99.90;;;7.54;100.00;97092.53;4992179;28;2042;-72
2023/11/21 00:07:37;;;;;;;;;;;8.20;99.90;;;7.58;100.00;97099.28;4991704;28;1938;-74
2023/11/21 00:10:05;;;;;;;;;;;8.20;99.90;;;7.57;100.00;97087.25;4998519;28;1458;-73
2023/11/21 00:12:33;;;;;;;;;;;8.20;99.90;;;7.63;100.00;97094.78;4991885;28;1406;-73
2023/11/21 00:15:01;;;;;;;;;;;8.20;99.90;;;7.58;100.00;97091.53;4993150;28;1610;-74
2023/11/21 00:17:28;;;;;;;;;;;8.30;99.90;;;7.55;100.00;97089.09;4975452;28;1410;-73
2023/11/21 00:19:55;;;;;;;;;;;8.20;99.90;;;7.61;100.00;97096.56;5007066;28;1526;-76
2023/11/21 00:22:22;;;;;;;;;;;8.20;99.90;;;7.67;100.00;97093.75;5008068;28;1558;-75
2023/11/21 00:24:49;;;;;;;;;;;8.20;99.90;;;7.72;100.00;97093.59;5004352;28;1414;-73
2023/11/21 00:27:16;;;;;;;;;;;8.30;99.90;;;7.65;100.00;97092.97;5004548;28;1389;-73
2023/11/21 00:29:43;;;;;;;;;;;8.20;99.90;;;7.69;100.00;97089.38;5007459;28;1981;-73
2023/11/21 00:32:09;;;;;;;;;;;8.30;99.90;;;7.70;100.00;97091.06;5008123;28;1552;-74
2023/11/21 00:34:36;;;;;;;;;;;8.30;99.90;;;7.61;100.00;97093.16;4990672;28;1552;-73
2023/11/21 00:37:03;;;;;;;;;;;8.30;99.90;;;7.64;100.00;97091.31;5008031;28;1586;-73
2023/11/21 00:39:30;;;;;;;;;;;8.30;99.90;;;7.71;100.00;97100.50;4989287;28;1592;-73
2023/11/21 00:41:57;;;;;;;;;;;8.30;99.90;;;7.62;100.00;97095.69;5007016;28;1726;-74
2023/11/21 00:44:23;;;;;;;;;;;8.30;99.90;;;7.67;100.00;97095.50;5003179;28;1584;-73
2023/11/21 00:46:50;;;;;;;;;;;8.30;99.90;;;7.65;100.00;97095.56;4993056;28;1514;-73
2023/11/21 00:49:18;;;;;;;;;;;8.30;99.90;;;7.69;100.00;97096.28;5008106;28;1977;-74
2023/11/21 00:51:45;;;;;;;;;;;8.30;99.90;;;7.65;100.00;97092.97;5004891;28;1565;-73
2023/11/21 00:54:12;;;;;;;;;;;8.30;99.90;;;7.71;100.00;97091.91;5001559;28;1590;-72
2023/11/21 00:56:39;;;;;;;;;;;8.30;99.90;;;7.71;100.00;97092.75;4994433;28;2069;-75
2023/11/21 00:59:06;;;;;;;;;;;8.30;99.90;;;7.74;100.00;97095.19;5005720;28;1487;-73
2023/11/21 01:01:34;;;;;;;;;;;8.30;99.90;;;7.73;100.00;97092.66;4988456;28;1566;-72
2023/11/21 01:04:01;;;;;;;;;;;8.30;99.90;;;7.75;100.00;97091.75;5004509;28;1582;-73
2023/11/21 01:06:28;;;;;;;;;;;8.30;99.90;;;7.75;100.00;97093.44;4986384;28;1617;-73
2023/11/21 01:08:54;;;;;;;;;;;8.30;99.90;;;7.78;100.00;97095.06;4986732;28;2007;-73
2023/11/21 01:11:21;;;;;;;;;;;8.30;99.90;;;7.80;100.00;97095.84;5003924;28;1561;-73
2023/11/21 01:13:48;;;;;;;;;;;8.30;99.90;;;7.80;100.00;97101.03;5002621;28;1688;-73
2023/11/21 01:16:15;;;;;;;;;;;8.30;99.90;;;7.72;100.00;97098.75;4986750;28;1608;-79
2023/11/21 01:18:42;;;;;;;;;;;8.40;99.90;;;7.72;100.00;97098.75;5002811;28;1713;-72
2023/11/21 01:21:09;;;;;;;;;;;8.40;99.90;;;7.73;100.00;97093.53;4985576;28;1598;-72
2023/11/21 01:23:36;;;;;;;;;;;8.40;99.90;;;7.77;100.00;97096.00;5005139;28;1655;-73
2023/11/21 01:26:03;;;;;;;;;;;8.30;99.90;;;7.69;100.00;97091.13;5007394;28;1656;-71
2023/11/21 01:28:30;;;;;;;;;;;8.30;99.90;;;7.75;100.00;97096.03;5007868;28;1902;-72
2023/11/21 01:30:57;;;;;;;;;;;8.30;99.90;;;7.63;100.00;97099.94;5004684;28;1611;-78
2023/11/21 01:33:24;;;;;;;;;;;8.30;99.90;;;7.77;100.00;97098.56;4990210;28;1571;-75
2023/11/21 01:35:54;;;;;;;;;;;8.30;99.90;;;7.67;100.00;97103.25;5005867;28;1552;-72
2023/11/21 01:38:22;;;;;;;;;;;8.30;99.90;;;7.62;100.00;97103.44;5005902;28;1633;-73
2023/11/21 01:40:49;;;;;;;;;;;8.30;99.90;;;7.63;100.00;97093.94;4994046;28;1375;-74
2023/11/21 01:43:16;;;;;;;;;;;8.30;99.90;;;7.72;100.00;97103.91;4986788;28;1584;-72
2023/11/21 01:45:45;;;;;;;;;;;8.30;99.90;;;7.68;100.00;97102.34;4985973;28;1542;-73
2023/11/21 01:48:12;;;;;;;;;;;8.30;99.90;;;7.68;100.00;97107.50;5007494;28;1963;-73
2023/11/21 01:50:40;;;;;;;;;;;8.30;99.90;;;7.67;100.00;97106.69;4989317;28;1562;-75
2023/11/21 01:53:06;;;;;;;;;;;8.30;99.90;;;7.63;100.00;97106.84;4989944;28;1491;-72
2023/11/21 01:55:34;;;;;;;;;;;8.30;99.90;;;7.70;100.00;97101.38;4988677;28;1577;-73
2023/11/21 01:58:01;;;;;;;;;;;8.30;99.90;;;7.65;100.00;97103.31;4986994;28;1626;-72
2023/11/21 02:00:28;;;;;;;;;;;8.30;99.90;;;7.75;100.00;97106.38;5001552;28;1517;-73
2023/11/21 02:02:56;;;;;;;;;;;8.30;99.90;;;7.85;100.00;97106.88;5001613;28;1678;-73
2023/11/21 02:05:23;;;;;;;;;;;8.30;99.90;;;7.83;100.00;97104.34;5006567;28;1529;-74
2023/11/21 02:07:52;;;;;;;;;;;8.40;99.90;;;7.71;100.00;97104.84;5006516;28;1553;-73
2023/11/21 02:10:22;;;;;;;;;;;8.40;99.90;;;7.75;100.00;97104.66;4987811;28;1918;-75
2023/11/21 02:12:51;;;;;;;;;;;8.40;99.90;;;7.85;100.00;97114.63;5004143;28;1772;-75
2023/11/21 02:15:21;;;;;;;;;;;8.30;99.90;;;7.83;100.00;97108.69;4985572;28;1629;-72
2023/11/21 02:17:51;;;;;;;;;;;8.30;99.90;;;7.76;100.00;97105.50;5004799;28;1502;-74
2023/11/21 02:20:20;;;;;;;;;;;8.40;99.90;;;7.72;100.00;97109.91;5004797;28;1692;-74
2023/11/21 02:22:57;;;;;;;;;;;8.40;99.90;;;7.82;100.00;97104.38;5006036;28;1580;-72
2023/11/21 02:25:30;;;;;;;;;;;8.50;99.90;;;7.81;100.00;97106.13;4992895;28;1539;-72
2023/11/21 02:28:01;;;;;;;;;;;8.40;99.90;;;7.77;100.00;97109.75;4989009;28;1584;-74
2023/11/21 02:30:28;;;;;;;;;;;8.40;99.90;;;7.81;100.00;97111.31;5005465;28;1902;-71
2023/11/21 02:32:56;;;;;;;;;;;8.40;99.90;;;7.88;100.00;97115.34;5006476;28;1592;-73
2023/11/21 02:35:27;;;;;;;;;;;8.30;99.90;;;7.78;100.00;97103.69;5003944;28;1926;-73
2023/11/21 02:37:55;;;;;;;;;;;8.30;99.90;;;7.89;100.00;97111.88;4986051;28;1771;-72
2023/11/21 02:40:24;;;;;;;;;;;8.40;99.90;;;7.83;100.00;97103.50;5005413;28;2123;-75
2023/11/21 02:42:51;;;;;;;;;;;8.40;99.90;;;7.86;100.00;97108.53;5005120;28;1646;-77
2023/11/21 02:45:20;;;;;;;;;;;8.40;99.90;;;7.84;100.00;97105.19;4986011;28;1561;-72
2023/11/21 02:47:53;;;;;;;;;;;8.40;99.90;;;7.84;100.00;97106.00;4985617;28;1566;-72
2023/11/21 02:50:20;;;;;;;;;;;8.40;99.90;;;7.92;100.00;97110.91;4991343;28;1975;-74
2023/11/21 02:52:48;;;;;;;;;;;8.40;99.90;;;7.86;100.00;97106.78;5004651;28;1509;-72
2023/11/21 02:55:15;;;;;;;;;;;8.40;99.90;;;7.90;100.00;97104.94;5005036;28;1500;-71
2023/11/21 02:57:42;;;;;;;;;;;8.50;99.90;;;7.87;100.00;97111.09;5002346;28;1580;-72
2023/11/21 03:00:14;;;;;;;;;;;8.50;99.90;;;7.81;100.00;97116.47;5003724;28;1536;-71
2023/11/21 03:02:42;;;;;;;;;;;8.50;99.90;;;7.96;100.00;97113.31;4997992;28;1577;-72
2023/11/21 03:05:09;;;;;;;;;;;8.50;99.90;;;7.91;100.00;97114.38;5001994;28;1539;-71
2023/11/21 03:07:37;;;;;;;;;;;8.40;99.90;;;7.96;100.00;97110.72;5005683;28;1675;-72
2023/11/21 03:10:08;;;;;;;;;;;8.40;99.90;;;7.95;100.00;97108.19;4996957;28;1895;-72
2023/11/21 03:12:37;;;;;;;;;;;8.40;99.90;;;8.00;100.00;97110.59;5005262;28;1966;-73
2023/11/21 03:15:08;;;;;;;;;;;8.50;99.90;;;7.83;100.00;97112.09;4986504;28;1939;-73
2023/11/21 03:17:35;;;;;;;;;;;8.50;99.90;;;7.90;100.00;97113.53;4999594;28;1913;-71
2023/11/21 03:20:04;;;;;;;;;;;8.50;99.90;;;7.99;100.00;97114.09;5000746;28;1566;-75
2023/11/21 03:22:31;;;;;;;;;;;8.40;99.90;;;7.89;100.00;97113.59;5003772;28;1689;-75
2023/11/21 03:24:58;;;;;;;;;;;8.40;99.90;;;7.83;100.00;97117.25;4984661;28;1581;-75
2023/11/21 03:27:25;;;;;;;;;;;8.40;99.90;;;7.74;100.00;97118.44;5006124;28;1591;-75
2023/11/21 03:29:54;;;;;;;;;;;8.40;99.90;;;7.76;100.00;97118.41;5004379;28;1914;-74
2023/11/21 03:32:21;;;;;;;;;;;8.40;99.90;;;7.80;100.00;97116.53;4984938;28;1620;-75
2023/11/21 03:34:59;;;;;;;;;;;8.40;99.90;;;7.85;100.00;97119.78;5002055;28;1723;-74
2023/11/21 03:37:27;;;;;;;;;;;8.40;99.90;;;7.75;100.00;97121.88;4999672;28;1551;-74
2023/11/21 03:39:56;;;;;;;;;;;8.40;99.90;;;7.84;100.00;97128.44;5002118;28;1583;-74
2023/11/21 03:42:26;;;;;;;;;;;8.40;99.90;;;7.85;100.00;97125.81;4986329;28;1542;-75
2023/11/21 03:44:54;;;;;;;;;;;8.40;99.90;;;7.83;100.00;97130.19;5002251;28;1560;-77
2023/11/21 03:47:21;;;;;;;;;;;8.40;99.90;;;7.86;100.00;97129.22;5000153;28;1707;-73
2023/11/21 03:49:48;;;;;;;;;;;8.40;99.90;;;7.78;100.00;97133.81;5002672;28;1997;-73
2023/11/21 03:52:16;;;;;;;;;;;8.30;99.90;;;7.82;100.00;97138.81;4988122;28;1593;-74
2023/11/21 03:54:43;;;;;;;;;;;8.30;99.90;;;7.83;100.00;97135.34;4985647;28;1585;-72
2023/11/21 03:57:11;;;;;;;;;;;8.20;99.90;;;7.84;100.00;97142.19;5003129;28;1556;-72
2023/11/21 03:59:42;;;;;;;;;;;8.30;99.90;;;7.88;100.00;97137.75;5001041;28;1493;-75
2023/11/21 04:02:09;;;;;;;;;;;8.30;99.90;;;7.81;100.00;97142.31;4985588;28;1607;-76
2023/11/21 04:04:36;;;;;;;;;;;8.30;99.90;;;7.90;100.00;97141.13;5001385;28;1540;-72
2023/11/21 04:07:04;;;;;;;;;;;8.30;99.90;;;7.88;100.00;97137.75;5001339;28;1545;-74
2023/11/21 04:09:32;;;;;;;;;;;8.30;99.90;;;7.68;100.00;97136.75;4988378;28;1979;-74
2023/11/21 04:11:59;;;;;;;;;;;8.30;99.90;;;7.81;100.00;97149.22;5000622;28;1513;-75
2023/11/21 04:14:26;;;;;;;;;;;8.30;99.90;;;7.87;100.00;97149.00;4984551;28;1636;-74
2023/11/21 04:16:53;;;;;;;;;;;8.40;99.90;;;7.81;100.00;97151.81;4985413;28;1546;-76
2023/11/21 04:19:20;;;;;;;;;;;8.40;99.90;;;7.78;100.00;97155.38;4987192;28;1644;-74
2023/11/21 04:21:48;;;;;;;;;;;8.40;99.90;;;7.76;100.00;97162.31;4987247;28;1580;-73
2023/11/21 04:24:15;;;;;;;;;;;8.40;99.90;;;7.78;100.00;97162.25;4987977;28;1729;-74
2023/11/21 04:26:41;;;;;;;;;;;8.40;99.90;;;7.80;100.00;97155.28;5002528;28;1431;-74
2023/11/21 04:29:08;;;;;;;;;;;8.40;99.90;;;7.77;100.00;97168.31;5006281;28;1983;-73
2023/11/21 04:31:35;;;;;;;;;;;8.40;99.90;;;7.71;100.00;97167.66;5007556;28;1583;-73
2023/11/21 04:34:04;;;;;;;;;;;8.40;99.90;;;7.78;100.00;97168.28;5004587;28;1577;-74
2023/11/21 04:36:31;;;;;;;;;;;8.40;99.90;;;7.78;100.00;97175.16;4988919;28;1597;-74
2023/11/21 04:38:58;;;;;;;;;;;8.30;99.90;;;7.85;100.00;97184.41;5006584;28;1616;-75
2023/11/21 04:41:25;;;;;;;;;;;8.40;99.90;;;7.75;100.00;97191.63;5006300;28;1556;-74
2023/11/21 04:43:52;;;;;;;;;;;8.40;99.90;;;7.77;100.00;97186.41;5004590;28;1545;-72
2023/11/21 04:46:19;;;;;;;;;;;8.40;99.90;;;7.68;100.00;97191.00;5005872;28;1622;-73
2023/11/21 04:48:46;;;;;;;;;;;8.40;99.90;;;7.71;100.00;97192.66;5003813;28;1906;-73
2023/11/21 04:51:14;;;;;;;;;;;8.40;99.90;;;7.69;100.00;97189.28;5003027;28;1556;-72
2023/11/21 04:53:41;;;;;;;;;;;8.40;99.90;;;7.81;100.00;97193.16;5002759;28;1626;-75
2023/11/21 04:56:08;;;;;;;;;;;8.40;99.90;;;7.79;100.00;97194.94;5006464;28;1568;-73
2023/11/21 04:58:35;;;;;;;;;;;8.40;99.90;;;7.81;100.00;97206.06;4987371;28;1559;-72
2023/11/21 05:01:03;;;;;;;;;;;8.50;99.90;;;7.77;100.00;97207.09;5003772;28;1552;-72
2023/11/21 05:03:34;;;;;;;;;;;8.50;99.90;;;7.65;100.00;97203.22;4992350;28;1559;-72
2023/11/21 05:06:02;;;;;;;;;;;8.40;99.90;;;7.70;100.00;97209.88;4989041;28;1474;-74
2023/11/21 05:08:28;;;;;;;;;;;8.40;99.90;;;7.58;100.00;97215.50;5001046;28;1563;-71
2023/11/21 05:10:55;;;;;;;;;;;8.30;99.90;;;7.66;100.00;97218.66;5001126;28;1983;-73
2023/11/21 05:13:27;;;;;;;;;;;8.30;99.90;;;7.48;100.00;97214.16;5007719;28;1640;-73
2023/11/21 05:15:56;;;;;;;;;;;8.30;99.90;;;7.46;100.00;97226.28;5000407;28;1563;-74
2023/11/21 05:18:26;;;;;;;;;;;8.20;99.90;;;7.38;100.00;97217.97;4986854;28;1756;-72
2023/11/21 05:20:53;;;;;;;;;;;8.20;99.90;;;7.45;100.00;97228.00;4991140;28;1701;-71
2023/11/21 05:23:20;;;;;;;;;;;8.20;99.90;;;7.48;100.00;97227.91;5002907;28;1563;-73
2023/11/21 05:25:47;;;;;;;;;;;8.20;99.90;;;7.44;100.00;97238.41;5005547;28;1600;-72
2023/11/21 05:28:14;;;;;;;;;;;8.20;99.90;;;7.44;100.00;97243.59;5003428;28;1648;-73
2023/11/21 05:30:41;;;;;;;;;;;8.20;99.90;;;7.43;100.00;97245.28;4987720;28;2007;-73
2023/11/21 05:33:08;;;;;;;;;;;8.20;99.90;;;7.37;100.00;97247.25;5001399;28;1635;-70
2023/11/21 05:35:35;;;;;;;;;;;8.20;99.90;;;7.43;100.00;97250.47;5003533;28;1597;-72
2023/11/21 05:38:02;;;;;;;;;;;8.10;99.90;;;7.41;100.00;97252.28;5002397;28;1426;-72
2023/11/21 05:40:29;;;;;;;;;;;8.20;99.90;;;7.41;100.00;97262.63;4989080;28;1693;-72
2023/11/21 05:42:56;;;;;;;;;;;8.20;99.90;;;7.52;100.00;97262.22;5000926;28;1554;-73
2023/11/21 05:45:23;;;;;;;;;;;8.20;99.90;;;7.54;100.00;97271.59;4989643;28;1596;-71
2023/11/21 05:47:50;;;;;;;;;;;8.20;99.90;;;7.48;100.00;97266.66;5003604;28;1624;-72
2023/11/21 05:50:18;;;;;;;;;;;8.20;99.90;;;7.50;100.00;97270.03;5005949;28;1989;-73
2023/11/21 05:52:46;;;;;;;;;;;8.20;99.90;;;7.40;100.00;97265.25;5004192;28;1560;-72
2023/11/21 05:55:16;;;;;;;;;;;8.10;99.90;;;7.41;100.00;97264.31;5005387;28;1529;-71
2023/11/21 05:57:44;;;;;;;;;;;8.10;99.90;;;7.46;100.00;97263.28;4985772;28;1634;-73
2023/11/21 06:00:25;;;;;;;;;;;8.20;99.90;;;7.44;100.00;97272.81;4988072;28;1530;-72
2023/11/21 06:02:53;;;;;;;;;;;8.20;99.90;;;7.53;100.00;97274.25;5004149;28;1607;-77
2023/11/21 06:05:23;;;;;;;;;;;8.20;99.90;;;7.40;100.00;97280.72;5007038;28;1592;-73
2023/11/21 06:07:52;;;;;;;;;;;8.20;99.90;;;7.44;100.00;97279.72;5001359;28;1601;-71
2023/11/21 06:10:23;;;;;;;;;;;8.20;99.90;;;7.33;100.00;97287.84;5002861;28;1903;-73
2023/11/21 06:12:52;;;;;;;;;;;8.10;99.90;;;7.39;100.00;97279.03;4984948;28;1549;-71
2023/11/21 06:15:20;;;;;;;;;;;8.10;99.90;;;7.53;100.00;97282.00;4984221;28;1532;-73
2023/11/21 06:17:52;;;;;;;;;;;8.10;99.90;;;7.57;100.00;97280.13;5003126;28;1811;-73
2023/11/21 06:20:20;;;;;;;;;;;8.20;99.90;;;7.56;100.00;97292.22;5001123;28;1574;-74
2023/11/21 06:22:48;;;;;;;;;;;8.20;99.90;;;7.57;100.00;97293.88;5004406;28;1581;-72
2023/11/21 06:25:17;;;;;;;;;;;8.20;99.90;;;7.45;100.00;97307.22;4973049;28;1477;-74
2023/11/21 06:27:46;;;;;;;;;;;8.20;99.90;;;7.39;100.00;97310.88;5002545;28;1545;-71
2023/11/21 06:30:13;;;;;;;;;;;8.10;99.90;;;7.40;100.00;97303.97;5006228;28;1910;-70
2023/11/21 06:32:46;;;;;;;;;;;8.10;99.90;;;7.35;100.00;97308.44;5006324;28;1569;-75
2023/11/21 06:35:15;;;;;;;;;;;8.10;99.90;;;7.36;100.00;97310.13;4987176;28;1573;-72
2023/11/21 06:37:51;;;;;;;;;;;8.10;99.90;;;7.29;100.00;97310.31;5003877;28;1275;-72
2023/11/21 06:40:19;;;;;;;;;;;8.10;99.90;;;7.44;100.00;97318.47;5002023;28;1649;-71
2023/11/21 06:42:47;;;;;;;;;;;8.10;99.90;;;7.39;100.00;97320.34;5002676;28;1323;-72
2023/11/21 06:45:15;;;;;;;;;;;8.10;99.90;;;7.41;100.00;97324.59;4986678;28;1488;-75
2023/11/21 06:47:42;;;;;;;;;;;8.10;99.90;;;7.43;100.00;97332.25;4987453;28;1551;-72
2023/11/21 06:50:10;;;;;;;;;;;8.10;99.90;;;7.40;100.00;97333.22;4986194;28;1910;-75
2023/11/21 06:52:38;;;;;;;;;;;8.20;99.90;;;7.36;100.00;97334.19;5006795;28;1433;-73
2023/11/21 06:55:08;;;;;;;;;;;8.20;99.90;;;7.46;100.00;97338.19;5005779;28;1305;-72
2023/11/21 06:57:35;;;;;;;;;;;8.10;99.90;;;7.45;100.00;97344.22;5001032;28;1067;-72
2023/11/21 07:00:03;;;;;;;;;;;8.20;99.90;;;7.44;100.00;97346.88;5005316;28;2059;-72
2023/11/21 07:02:30;;;;;;;;;;;8.10;99.90;;;7.43;100.00;97358.09;5006638;28;1261;-72
2023/11/21 07:04:59;;;;;;;;;;;8.10;99.90;;;7.54;100.00;97361.97;4990194;28;1393;-72
2023/11/21 07:07:27;;;;;;;;;;;8.10;99.90;;;7.64;100.00;97367.69;5005418;28;1035;-71
2023/11/21 07:09:54;;;;;;;;;;;8.20;99.90;;;7.45;100.00;97369.22;4990198;28;1989;-71
2023/11/21 07:12:23;;;;;;;;;;;8.20;99.90;;;7.45;100.00;97379.53;5005949;28;1350;-75
2023/11/21 07:14:50;;;;;;;;;;;8.10;99.90;;;7.37;100.00;97377.22;5005189;28;1788;-71
2023/11/21 07:17:17;;;;;;;;;;;8.10;99.90;;;7.52;100.00;97378.44;5002975;28;1059;-73
2023/11/21 07:19:44;;;;;;;;;;;8.10;99.90;;;7.53;100.00;97378.38;5005943;28;1349;-71
2023/11/21 07:22:12;;;;;;;;;;;8.10;99.90;;;7.48;100.00;97375.13;5003487;28;1794;-72
2023/11/21 07:24:39;;;;;;;;;;;8.20;99.90;;;7.51;100.00;97384.50;4988443;28;1028;-72
2023/11/21 07:27:06;;;;;;;;;;;8.20;99.90;;;7.44;100.00;97389.03;5005768;28;1452;-71
2023/11/21 07:29:34;;;;;;;;;;;8.20;99.90;;;7.56;100.00;97390.34;5003749;28;1918;-74
2023/11/21 07:32:03;;;;;;;;;;;8.20;99.90;;;7.51;100.00;97392.25;5007791;28;1363;-71
2023/11/21 07:34:30;;;;;;;;;;;8.20;99.90;;;7.44;100.00;97401.94;5000339;28;1404;-75
2023/11/21 07:36:57;;;;;;;;;;;8.20;99.90;;;7.58;100.00;97401.47;5000262;28;1313;-73
2023/11/21 07:39:24;;;;;;;;;;;8.20;99.90;;;7.57;100.00;97401.53;5013330;28;1254;-72
2023/11/21 07:41:52;;;;;;;;;;;8.20;99.90;;;7.71;100.00;97409.69;4993359;28;1616;-73
2023/11/21 07:44:19;;;;;;;;;;;8.30;99.90;;;7.65;100.00;97417.63;4973525;28;1156;-72
2023/11/21 07:46:47;;;;;;;;;;;8.30;99.90;;;7.52;100.00;97418.00;4999691;28;1157;-75
2023/11/21 07:49:15;;;;;;;;;;;8.30;99.90;;;7.53;100.00;97429.22;4974666;28;1467;-72
2023/11/21 07:51:43;;;;;;;;;;;8.20;99.90;;;7.43;100.00;97433.81;5002348;28;1981;-71
2023/11/21 07:54:11;;;;;;;;;;;8.10;99.90;;;7.48;100.00;97437.09;5003127;28;1198;-71
2023/11/21 07:56:37;;;;;;;;;;;8.10;99.90;;;7.37;100.00;97438.31;5004725;28;1550;-71
2023/11/21 07:59:04;;;;;;;;;;;8.20;99.90;;;7.43;100.00;97441.56;5005919;28;1218;-72
2023/11/21 08:01:31;;;;;;;;;;;8.20;99.90;;;7.44;100.00;97451.00;5006253;28;1474;-72
2023/11/21 08:04:03;;;;;;;;;;;8.20;99.90;;;7.46;100.00;97454.38;5011818;28;1089;-75
2023/11/21 08:06:30;;;;;;;;;;;8.20;99.90;;;7.46;100.00;97451.81;5008201;28;1476;-74
2023/11/21 08:08:57;;;;;;;;;;;8.20;99.90;;;7.50;100.00;97455.13;4988528;28;1421;-72
2023/11/21 08:11:24;;;;;;;;;;;8.20;99.90;;;7.45;100.00;97457.84;5003580;28;2019;-73
2023/11/21 08:13:51;;;;;;;;;;;8.20;99.90;;;7.47;100.00;97463.81;5004599;28;1105;-78
2023/11/21 08:16:18;;;;;;;;;;;8.10;99.90;;;7.49;100.00;97471.53;4991074;28;1160;-71
2023/11/21 08:18:45;;;;;;;;;;;8.10;99.90;;;7.38;100.00;97466.69;5003448;28;1332;-73
2023/11/21 08:21:13;;;;;;;;;;;8.20;99.90;;;7.47;100.00;97468.97;4989824;28;1443;-72
2023/11/21 08:23:39;;;;;;;;;;;8.20;99.90;;;7.46;100.00;97462.13;4993458;28;1242;-71
2023/11/21 08:26:06;;;;;;;;;;;8.10;99.90;;;7.44;100.00;97468.25;5000687;28;1652;-73
2023/11/21 08:28:33;;;;;;;;;;;8.10;99.90;;;7.37;100.00;97466.72;5006946;28;1460;-74
2023/11/21 08:31:01;;;;;;;;;;;8.10;99.90;;;7.49;100.00;97468.94;5010045;28;1891;-71
2023/11/21 08:33:28;;;;;;;;;;;8.10;99.90;;;7.59;100.00;97475.47;4992493;28;1422;-72
2023/11/21 08:35:55;;;;;;;;;;;8.20;99.90;;;7.48;100.00;97474.97;5006914;28;1404;-71
2023/11/21 08:38:22;;;;;;;;;;;8.10;99.90;;;7.40;100.00;97480.41;5006730;28;1253;-71
2023/11/21 08:40:49;;;;;;;;;;;8.20;99.90;;;7.48;100.00;97480.16;5006081;28;1383;-72
2023/11/21 08:43:16;;;;;;;;;;;8.20;99.90;;;7.49;100.00;97487.84;5004901;28;1165;-72
2023/11/21 08:45:43;;;;;;;;;;;8.10;99.90;;;7.43;100.00;97493.19;5009330;28;1157;-71
2023/11/21 08:48:11;;;;;;;;;;;8.10;99.90;;;7.58;100.00;97496.22;4989714;28;1259;-73
2023/11/21 08:50:38;;;;;;;;;;;8.20;99.90;;;7.64;100.00;97498.59;5006204;28;1902;-72
2023/11/21 08:53:05;;;;;;;;;;;8.20;99.90;;;7.58;100.00;97498.81;5005153;28;1037;-71
2023/11/21 08:55:37;;;;;;;;;;;8.20;99.90;;;7.47;100.00;97502.53;5003598;28;979;-71
2023/11/21 08:58:05;;;;;;;;;;;8.20;99.90;;;7.41;100.00;97507.06;5002981;28;1086;-74
2023/11/21 09:00:33;;;;;;;;;;;8.10;99.90;;;7.39;100.00;97509.72;5003670;28;1338;-73
2023/11/21 09:03:02;;;;;;;;;;;8.10;99.90;;;7.50;100.00;97515.38;4991052;28;1745;-72
2023/11/21 09:05:29;;;;;;;;;;;8.10;99.90;;;7.58;100.00;97512.56;4991944;28;1038;-72
2023/11/21 09:07:56;;;;;;;;;;;8.20;99.90;;;7.69;100.00;97519.97;4987224;28;1058;-74
2023/11/21 09:10:25;;;;;;;;;;;8.20;99.90;;;7.72;100.00;97518.13;5004522;28;1898;-77
2023/11/21 09:12:52;;;;;;;;;;;8.30;99.90;;;7.79;100.00;97520.50;5008113;28;1513;-72
2023/11/21 09:15:20;;;;;;;;;;;8.30;99.90;;;7.89;100.00;97524.47;5008079;28;1654;-72
2023/11/21 09:17:47;;;;;;;;;;;8.40;99.90;;;7.80;100.00;97527.34;5008344;28;1080;-73
2023/11/21 09:20:15;;;;;;;;;;;8.40;99.90;;;7.67;100.00;97530.34;4976566;28;1139;-70
2023/11/21 09:22:42;;;;;;;;;;;8.40;99.90;;;7.62;100.00;97532.22;4995829;28;1431;-74
2023/11/21 09:25:09;;;;;;;;;;;8.40;99.90;;;7.78;100.00;97537.75;4990747;28;1449;-73
2023/11/21 09:27:36;;;;;;;;;;;8.30;99.90;;;7.86;100.00;97542.66;5007685;28;1444;-71
2023/11/21 09:30:05;;;;;;;;;;;8.30;99.90;;;7.88;100.00;97544.31;5005796;28;1903;-72
2023/11/21 09:32:32;;;;;;;;;;;8.40;99.90;;;8.05;100.00;97543.78;4991040;28;1450;-71
2023/11/21 09:35:00;;;;;;;;;;;8.50;99.90;;;7.78;100.00;97547.22;5008235;28;1369;-73
2023/11/21 09:37:27;;;;;;;;;;;8.50;99.90;;;7.72;100.00;97545.69;5007529;28;1377;-73
2023/11/21 09:39:55;;;;;;;;;;;8.40;99.90;;;7.75;100.00;97548.16;5009422;28;1264;-73
2023/11/21 09:42:43;;;;;;;;;;;8.40;99.90;;;7.65;100.00;97549.38;5006261;28;1460;-71
2023/11/21 09:45:20;;;;;;;;;;;8.40;99.90;;;7.72;100.00;97551.69;5008514;28;1914;-71
2023/11/21 09:47:47;;;;;;;;;;;8.40;99.90;;;7.82;100.00;97561.75;5001497;28;1523;-72
2023/11/21 09:50:17;;;;;;;;;;;8.40;99.90;;;7.71;100.00;97569.84;4987917;28;1971;-71
2023/11/21 09:53:04;;;;;;;;;;;8.40;99.90;;;7.80;100.00;97566.97;5002102;28;1793;-72
2023/11/21 09:55:36;;;;;;;;;;;8.40;99.90;;;7.78;100.00;97576.50;4985482;28;1474;-73
2023/11/21 09:58:07;;;;;;;;;;;8.50;99.90;;;7.78;100.00;97571.34;5003352;28;1662;-71
2023/11/21 10:00:34;;;;;;;;;;;8.50;99.90;;;7.67;100.00;97579.44;5004238;28;1798;-71
2023/11/21 10:03:02;;;;;;;;;;;8.40;99.90;;;7.77;100.00;97587.72;4990638;28;1350;-74
2023/11/21 10:05:29;;;;;;;;;;;8.40;99.90;;;7.86;100.00;97591.78;5004757;28;1457;-73
2023/11/21 10:07:58;;;;;;;;;;;8.40;99.90;;;7.79;100.00;97596.28;5005001;28;1504;-71
2023/11/21 10:10:25;;;;;;;;;;;8.50;99.90;;;7.90;100.00;97596.78;4999891;28;1910;-73
2023/11/21 10:12:56;;;;;;;;;;;8.50;99.90;;;7.91;100.00;97602.81;5003884;28;1549;-71
2023/11/21 10:15:25;;;;;;;;;;;8.50;99.90;;;7.88;100.00;97605.50;5003239;28;1338;-72
2023/11/21 10:17:55;;;;;;;;;;;8.50;99.90;;;7.99;100.00;97612.91;4988834;28;1351;-74
2023/11/21 10:20:24;;;;;;;;;;;8.50;99.90;;;7.90;100.00;97614.88;4986708;28;1457;-73
2023/11/21 10:22:51;;;;;;;;;;;8.60;99.90;;;8.03;100.00;97611.91;4986774;28;1462;-71
2023/11/21 10:25:20;;;;;;;;;;;8.60;99.90;;;7.99;100.00;97613.75;4985989;28;1587;-72
2023/11/21 10:27:51;;;;;;;;;;;8.70;99.90;;;7.92;100.00;97617.44;5005149;28;1354;-73
2023/11/21 10:30:18;;;;;;;;;;;8.60;99.90;;;7.97;100.00;97618.97;4991037;28;1906;-73
2023/11/21 10:32:45;;;;;;;;;;;8.60;99.90;;;8.04;100.00;97622.19;5007222;28;1390;-71
2023/11/21 10:35:12;;;;;;;;;;;8.60;99.90;;;7.95;100.00;97622.50;5003080;28;1410;-72
2023/11/21 10:37:40;;;;;;;;;;;8.60;99.90;;;8.20;100.00;97624.31;5004358;28;1413;-71
2023/11/21 10:40:11;;;;;;;;;;;8.70;99.90;;;8.11;100.00;97621.09;5001671;28;1386;-72
2023/11/21 10:42:42;;;;;;;;;;;8.70;99.90;;;8.11;100.00;97620.28;5005658;28;1465;-71
2023/11/21 10:45:14;;;;;;;;;;;8.70;99.90;;;8.14;100.00;97627.91;5009107;28;1476;-71
2023/11/21 10:47:41;;;;;;;;;;;8.70;99.90;;;8.14;100.00;97623.63;5004089;28;1381;-71
2023/11/21 10:50:10;;;;;;;;;;;8.70;99.90;;;8.24;100.00;97616.41;4989973;28;1529;-76
2023/11/21 10:52:39;;;;;;;;;;;8.80;99.90;;;8.19;100.00;97626.06;5006291;28;1898;-73
2023/11/21 10:55:24;;;;;;;;;;;8.80;99.90;;;8.23;100.00;97624.19;4989908;28;1418;-74
2023/11/21 10:57:53;;;;;;;;;;;8.90;99.90;;;8.26;100.00;97635.28;5004872;28;1118;-73
2023/11/21 11:00:20;;;;;;;;;;;8.80;99.90;;;8.28;100.00;97630.06;4984850;28;1397;-71
2023/11/21 11:02:52;;;;;;;;;;;8.80;99.90;;;8.52;100.00;97628.44;5006081;28;1443;-72
2023/11/21 11:05:20;;;;;;;;;;;8.90;99.90;;;8.42;100.00;97627.06;4991636;28;1386;-71
2023/11/21 11:07:59;;;;;;;;;;;8.90;99.90;;;8.54;100.00;97622.31;5004525;28;1325;-72
2023/11/21 11:10:29;;;;;;;;;;;9.00;99.90;;;8.42;100.00;97630.50;5002397;28;1902;-72
2023/11/21 11:12:59;;;;;;;;;;;9.10;99.90;;;8.53;100.00;97628.41;5006915;28;1451;-71
2023/11/21 11:15:27;;;;;;;;;;;9.00;99.90;;;8.35;100.00;97622.06;4988847;28;1607;-73
2023/11/21 11:17:56;;;;;;;;;;;9.00;99.90;;;8.31;100.00;97622.22;5003271;28;1392;-72
2023/11/21 11:20:30;;;;;;;;;;;9.00;99.90;;;8.61;100.00;97632.47;5003540;28;1108;-71
2023/11/21 11:23:22;;;;;;;;;;;9.10;99.90;;;8.49;100.00;97620.81;4992702;28;1395;-71
2023/11/21 11:26:01;;;;;;;;;;;9.20;99.90;;;8.59;100.00;97619.56;5007523;28;1359;-71
2023/11/21 11:28:38;;;;;;;;;;;9.20;99.90;;;8.54;100.00;97617.16;5010132;28;1404;-72
2023/11/21 11:31:38;;;;;;;;;;;9.10;99.90;;;8.47;100.00;97614.81;5004355;28;1962;-72
2023/11/21 11:34:11;;;;;;;;;;;9.10;99.90;;;8.55;100.00;97607.63;5007318;28;1900;-73
2023/11/21 11:36:50;;;;;;;;;;;9.20;99.90;;;8.68;100.00;97615.84;5007436;28;1448;-73
2023/11/21 11:39:36;;;;;;;;;;;9.20;99.90;;;8.73;100.00;97619.94;5008051;28;1139;-73